sensor_id;sensor_type;location;lat;lon;timestamp;temperature;humidity
3818;DHT22;1924;48.078;11.516;2024-01-30T00:00:02;1.90;98.60
3818;DHT22;1924;48.078;11.516;2024-01-30T00:02:30;1.70;98.80
3818;DHT22;1924;48.078;11.516;2024-01-30T00:04:57;1.70;99.00
3818;DHT22;1924;48.078;11.516;2024-01-30T00:07:25;1.70;99.00
3818;DHT22;1924;48.078;11.516;2024-01-30T00:09:52;1.70;99.00
3818;DHT22;1924;48.078;11.516;2024-01-30T00:12:18;1.80;99.00
3818;DHT22;1924;48.078;11.516;2024-01-30T05:04:54;0.80;99.90
3818;DHT22;1924;48.078;11.516;2024-01-30T05:07:20;0.80;99.90
3818;DHT22;1924;48.078;11.516;2024-01-30T05:09:47;0.90;99.90
3818;DHT22;1924;48.078;11.516;2024-01-30T05:12:14;0.90;99.90
3818;DHT22;1924;48.078;11.516;2024-01-30T05:14:41;1.00;99.90
3818;DHT22;1924;48.078;11.516;2024-01-30T05:17:07;0.90;99.90
3818;DHT22;1924;48.078;11.516;2024-01-30T05:19:35;0.90;99.90
3818;DHT22;1924;48.078;11.516;2024-01-30T05:22:03;1.00;99.90
3818;DHT22;1924;48.078;11.516;2024-01-30T05:24:31;0.90;99.90
3818;DHT22;1924;48.078;11.516;2024-01-30T05:26:58;0.90;99.90
3818;DHT22;1924;48.078;11.516;2024-01-30T05:29:25;0.90;99.90
3818;DHT22;1924;48.078;11.516;2024-01-30T05:31:51;0.90;99.90
3818;DHT22;1924;48.078;11.516;2024-01-30T05:34:18;1.00;99.90
3818;DHT22;1924;48.078;11.516;2024-01-30T05:36:46;1.00;99.90
3818;DHT22;1924;48.078;11.516;2024-01-30T05:39:14;1.00;99.90
3818;DHT22;1924;48.078;11.516;2024-01-30T05:41:41;1.00;99.90
3818;DHT22;1924;48.078;11.516;2024-01-30T05:44:08;1.00;99.90
3818;DHT22;1924;48.078;11.516;2024-01-30T05:46:35;1.00;99.90
3818;DHT22;1924;48.078;11.516;2024-01-30T05:49:02;0.90;99.90
3818;DHT22;1924;48.078;11.516;2024-01-30T05:51:29;0.90;99.90
3818;DHT22;1924;48.078;11.516;2024-01-30T05:53:55;0.80;99.90
3818;DHT22;1924;48.078;11.516;2024-01-30T05:56:24;0.90;99.90
3818;DHT22;1924;48.078;11.516;2024-01-30T05:58:50;0.90;99.90
3818;DHT22;1924;48.078;11.516;2024-01-30T06:01:17;0.90;99.90
3818;DHT22;1924;48.078;11.516;2024-01-30T06:03:44;1.00;99.90
3818;DHT22;1924;48.078;11.516;2024-01-30T06:06:10;0.90;99.90
3818;DHT22;1924;48.078;11.516;2024-01-30T06:08:37;1.00;99.90
3818;DHT22;1924;48.078;11.516;2024-01-30T06:11:04;1.00;99.90
3818;DHT22;1924;48.078;11.516;2024-01-30T06:13:32;0.90;99.90
3818;DHT22;1924;48.078;11.516;2024-01-30T06:15:59;0.80;99.90
3818;DHT22;1924;48.078;11.516;2024-01-30T06:18:26;0.90;99.90
3818;DHT22;1924;48.078;11.516;2024-01-30T06:20:54;1.00;99.90
3818;DHT22;1924;48.078;11.516;2024-01-30T06:23:21;1.00;99.90
3818;DHT22;1924;48.078;11.516;2024-01-30T06:25:48;0.90;99.90
3818;DHT22;1924;48.078;11.516;2024-01-30T06:28:15;0.90;99.90
3818;DHT22;1924;48.078;11.516;2024-01-30T06:30:43;0.80;99.90
3818;DHT22;1924;48.078;11.516;2024-01-30T06:33:12;0.80;99.90
3818;DHT22;1924;48.078;11.516;2024-01-30T06:35:40;0.90;99.90
3818;DHT22;1924;48.078;11.516;2024-01-30T06:38:07;0.90;99.90
3818;DHT22;1924;48.078;11.516;2024-01-30T06:40:34;0.90;99.90
3818;DHT22;1924;48.078;11.516;2024-01-30T06:43:02;1.00;99.90
3818;DHT22;1924;48.078;11.516;2024-01-30T06:45:29;0.90;99.90
3818;DHT22;1924;48.078;11.516;2024-01-30T06:47:58;0.90;99.90
3818;DHT22;1924;48.078;11.516;2024-01-30T06:50:25;0.80;99.90
3818;DHT22;1924;48.078;11.516;2024-01-30T06:52:51;0.90;99.90
3818;DHT22;1924;48.078;11.516;2024-01-30T06:55:18;0.90;99.90
3818;DHT22;1924;48.078;11.516;2024-01-30T06:57:45;0.90;99.90
3818;DHT22;1924;48.078;11.516;2024-01-30T07:00:13;1.00;99.90
3818;DHT22;1924;48.078;11.516;2024-01-30T07:02:40;1.00;99.90
3818;DHT22;1924;48.078;11.516;2024-01-30T07:05:09;1.00;99.90
3818;DHT22;1924;48.078;11.516;2024-01-30T07:07:36;1.10;99.90
3818;DHT22;1924;48.078;11.516;2024-01-30T07:10:03;1.10;99.90
3818;DHT22;1924;48.078;11.516;2024-01-30T07:12:31;1.10;99.90
3818;DHT22;1924;48.078;11.516;2024-01-30T07:14:57;1.10;99.90
3818;DHT22;1924;48.078;11.516;2024-01-30T07:17:25;1.10;99.90
3818;DHT22;1924;48.078;11.516;2024-01-30T07:19:51;1.10;99.90
3818;DHT22;1924;48.078;11.516;2024-01-30T07:22:20;1.20;99.90
3818;DHT22;1924;48.078;11.516;2024-01-30T07:24:47;1.30;99.90
3818;DHT22;1924;48.078;11.516;2024-01-30T07:27:18;1.40;99.90
3818;DHT22;1924;48.078;11.516;2024-01-30T07:29:44;1.50;99.90
3818;DHT22;1924;48.078;11.516;2024-01-30T07:32:11;1.40;99.90
3818;DHT22;1924;48.078;11.516;2024-01-30T07:34:38;1.40;99.90
3818;DHT22;1924;48.078;11.516;2024-01-30T07:37:05;1.50;99.90
3818;DHT22;1924;48.078;11.516;2024-01-30T07:39:35;1.60;99.90
3818;DHT22;1924;48.078;11.516;2024-01-30T07:42:02;1.60;99.90
3818;DHT22;1924;48.078;11.516;2024-01-30T07:44:29;1.70;99.90
3818;DHT22;1924;48.078;11.516;2024-01-30T07:46:56;1.80;99.90
3818;DHT22;1924;48.078;11.516;2024-01-30T07:49:22;1.90;99.90
3818;DHT22;1924;48.078;11.516;2024-01-30T07:51:49;2.00;99.90
3818;DHT22;1924;48.078;11.516;2024-01-30T07:54:16;2.10;99.90
3818;DHT22;1924;48.078;11.516;2024-01-30T07:56:44;2.20;99.60
3818;DHT22;1924;48.078;11.516;2024-01-30T07:59:11;2.30;99.80
3818;DHT22;1924;48.078;11.516;2024-01-30T08:01:38;2.30;99.90
3818;DHT22;1924;48.078;11.516;2024-01-30T08:04:04;2.40;99.90
3818;DHT22;1924;48.078;11.516;2024-01-30T08:06:31;2.40;99.90
3818;DHT22;1924;48.078;11.516;2024-01-30T08:08:58;2.40;99.90
3818;DHT22;1924;48.078;11.516;2024-01-30T08:11:25;2.50;99.90
3818;DHT22;1924;48.078;11.516;2024-01-30T08:13:54;2.60;99.90
3818;DHT22;1924;48.078;11.516;2024-01-30T08:16:20;2.70;99.90
3818;DHT22;1924;48.078;11.516;2024-01-30T08:18:47;2.80;99.90
3818;DHT22;1924;48.078;11.516;2024-01-30T08:21:14;2.80;99.90
3818;DHT22;1924;48.078;11.516;2024-01-30T08:23:42;3.00;99.90
3818;DHT22;1924;48.078;11.516;2024-01-30T08:26:09;3.10;99.70
3818;DHT22;1924;48.078;11.516;2024-01-30T08:28:35;3.20;99.90
3818;DHT22;1924;48.078;11.516;2024-01-30T08:31:04;3.40;99.60
3818;DHT22;1924;48.078;11.516;2024-01-30T08:33:30;3.50;99.30
3818;DHT22;1924;48.078;11.516;2024-01-30T08:35:57;3.70;99.00
3818;DHT22;1924;48.078;11.516;2024-01-30T08:38:24;3.90;98.60
3818;DHT22;1924;48.078;11.516;2024-01-30T08:40:51;4.10;97.60
3818;DHT22;1924;48.078;11.516;2024-01-30T08:43:18;4.30;97.60
3818;DHT22;1924;48.078;11.516;2024-01-30T08:45:44;4.50;96.90
3818;DHT22;1924;48.078;11.516;2024-01-30T08:48:12;4.70;95.90
3818;DHT22;1924;48.078;11.516;2024-01-30T08:50:39;4.80;95.40
3818;DHT22;1924;48.078;11.516;2024-01-30T08:53:06;5.00;95.00
3818;DHT22;1924;48.078;11.516;2024-01-30T08:55:33;5.10;95.10
3818;DHT22;1924;48.078;11.516;2024-01-30T08:57:59;5.30;95.20
3818;DHT22;1924;48.078;11.516;2024-01-30T09:00:26;5.40;94.60
3818;DHT22;1924;48.078;11.516;2024-01-30T09:02:53;5.50;94.30
3818;DHT22;1924;48.078;11.516;2024-01-30T09:05:21;5.60;94.30
3818;DHT22;1924;48.078;11.516;2024-01-30T09:07:48;5.70;94.10
3818;DHT22;1924;48.078;11.516;2024-01-30T09:10:15;5.80;93.50
3818;DHT22;1924;48.078;11.516;2024-01-30T09:12:41;5.80;93.10
3818;DHT22;1924;48.078;11.516;2024-01-30T09:15:09;5.90;92.80
3818;DHT22;1924;48.078;11.516;2024-01-30T09:17:36;6.10;92.70
3818;DHT22;1924;48.078;11.516;2024-01-30T09:20:04;6.20;92.30
3818;DHT22;1924;48.078;11.516;2024-01-30T09:22:32;6.30;92.20
3818;DHT22;1924;48.078;11.516;2024-01-30T09:24:59;6.30;92.00
3818;DHT22;1924;48.078;11.516;2024-01-30T09:27:25;6.40;91.80
3818;DHT22;1924;48.078;11.516;2024-01-30T09:29:52;6.50;92.00
3818;DHT22;1924;48.078;11.516;2024-01-30T09:32:19;6.60;91.80
3818;DHT22;1924;48.078;11.516;2024-01-30T09:34:45;6.80;92.40
3818;DHT22;1924;48.078;11.516;2024-01-30T09:37:12;6.90;91.70
3818;DHT22;1924;48.078;11.516;2024-01-30T09:39:42;6.90;91.10
3818;DHT22;1924;48.078;11.516;2024-01-30T09:42:14;7.00;90.60
3818;DHT22;1924;48.078;11.516;2024-01-30T09:44:44;7.10;90.80
3818;DHT22;1924;48.078;11.516;2024-01-30T09:47:12;7.20;88.80
3818;DHT22;1924;48.078;11.516;2024-01-30T09:49:39;7.30;89.60
3818;DHT22;1924;48.078;11.516;2024-01-30T09:52:08;7.40;90.40
3818;DHT22;1924;48.078;11.516;2024-01-30T09:54:35;7.50;89.10
3818;DHT22;1924;48.078;11.516;2024-01-30T09:57:03;7.80;85.30
3818;DHT22;1924;48.078;11.516;2024-01-30T09:59:30;8.00;85.40
3818;DHT22;1924;48.078;11.516;2024-01-30T10:01:57;8.10;85.60
3818;DHT22;1924;48.078;11.516;2024-01-30T10:04:24;8.20;84.40
3818;DHT22;1924;48.078;11.516;2024-01-30T10:06:51;8.40;84.70
3818;DHT22;1924;48.078;11.516;2024-01-30T10:09:17;8.40;86.00
3818;DHT22;1924;48.078;11.516;2024-01-30T10:11:44;8.50;82.40
3818;DHT22;1924;48.078;11.516;2024-01-30T10:14:12;8.60;83.30
3818;DHT22;1924;48.078;11.516;2024-01-30T10:16:39;8.60;82.50
3818;DHT22;1924;48.078;11.516;2024-01-30T10:19:06;8.70;81.90
3818;DHT22;1924;48.078;11.516;2024-01-30T10:21:32;8.80;83.50
3818;DHT22;1924;48.078;11.516;2024-01-30T10:23:59;8.80;84.50
3818;DHT22;1924;48.078;11.516;2024-01-30T10:26:26;8.80;81.80
3818;DHT22;1924;48.078;11.516;2024-01-30T10:28:54;8.80;89.60
3818;DHT22;1924;48.078;11.516;2024-01-30T10:31:22;8.90;90.90
3818;DHT22;1924;48.078;11.516;2024-01-30T10:33:49;8.90;92.30
3818;DHT22;1924;48.078;11.516;2024-01-30T10:36:17;8.80;87.40
3818;DHT22;1924;48.078;11.516;2024-01-30T10:38:45;8.90;89.10
3818;DHT22;1924;48.078;11.516;2024-01-30T10:41:13;8.90;86.40
3818;DHT22;1924;48.078;11.516;2024-01-30T10:43:42;8.80;85.20
3818;DHT22;1924;48.078;11.516;2024-01-30T10:46:18;8.90;89.00
3818;DHT22;1924;48.078;11.516;2024-01-30T10:48:50;8.90;81.30
3818;DHT22;1924;48.078;11.516;2024-01-30T10:51:20;9.10;82.30
3818;DHT22;1924;48.078;11.516;2024-01-30T10:53:49;9.00;83.50
3818;DHT22;1924;48.078;11.516;2024-01-30T10:56:16;9.10;81.50
3818;DHT22;1924;48.078;11.516;2024-01-30T10:58:43;9.10;81.30
3818;DHT22;1924;48.078;11.516;2024-01-30T11:01:10;9.20;75.40
3818;DHT22;1924;48.078;11.516;2024-01-30T11:03:38;9.30;76.80
3818;DHT22;1924;48.078;11.516;2024-01-30T11:06:10;9.40;83.30
3818;DHT22;1924;48.078;11.516;2024-01-30T11:08:37;9.40;78.90
3818;DHT22;1924;48.078;11.516;2024-01-30T11:11:09;9.40;79.50
3818;DHT22;1924;48.078;11.516;2024-01-30T11:13:36;9.50;78.40
3818;DHT22;1924;48.078;11.516;2024-01-30T11:16:03;9.60;79.50
3818;DHT22;1924;48.078;11.516;2024-01-30T11:18:33;9.70;80.20
3818;DHT22;1924;48.078;11.516;2024-01-30T11:21:00;9.80;79.00
3818;DHT22;1924;48.078;11.516;2024-01-30T11:23:29;9.80;78.10
3818;DHT22;1924;48.078;11.516;2024-01-30T11:25:56;9.80;77.80
3818;DHT22;1924;48.078;11.516;2024-01-30T11:28:23;9.90;78.90
3818;DHT22;1924;48.078;11.516;2024-01-30T11:30:51;10.00;78.40
3818;DHT22;1924;48.078;11.516;2024-01-30T11:33:28;10.10;76.50
3818;DHT22;1924;48.078;11.516;2024-01-30T11:35:58;10.20;75.20
3818;DHT22;1924;48.078;11.516;2024-01-30T11:38:26;10.20;75.20
3818;DHT22;1924;48.078;11.516;2024-01-30T11:40:55;10.20;73.60
3818;DHT22;1924;48.078;11.516;2024-01-30T11:43:23;10.40;73.80
3818;DHT22;1924;48.078;11.516;2024-01-30T11:45:50;10.40;75.50
3818;DHT22;1924;48.078;11.516;2024-01-30T11:48:22;10.40;73.90
3818;DHT22;1924;48.078;11.516;2024-01-30T11:50:49;10.50;74.70
3818;DHT22;1924;48.078;11.516;2024-01-30T11:53:17;10.50;73.90
3818;DHT22;1924;48.078;11.516;2024-01-30T11:55:49;10.60;75.80
3818;DHT22;1924;48.078;11.516;2024-01-30T11:58:17;10.60;71.10
3818;DHT22;1924;48.078;11.516;2024-01-30T12:00:53;10.70;69.50
3818;DHT22;1924;48.078;11.516;2024-01-30T12:03:21;10.80;70.30
3818;DHT22;1924;48.078;11.516;2024-01-30T12:05:55;10.90;69.30
3818;DHT22;1924;48.078;11.516;2024-01-30T12:08:22;10.90;73.40
3818;DHT22;1924;48.078;11.516;2024-01-30T12:10:55;10.80;72.80
3818;DHT22;1924;48.078;11.516;2024-01-30T12:13:24;10.80;71.70
3818;DHT22;1924;48.078;11.516;2024-01-30T12:15:51;10.70;71.20
3818;DHT22;1924;48.078;11.516;2024-01-30T12:18:19;10.60;73.40
3818;DHT22;1924;48.078;11.516;2024-01-30T12:20:56;10.60;72.00
3818;DHT22;1924;48.078;11.516;2024-01-30T12:23:23;10.70;71.10
3818;DHT22;1924;48.078;11.516;2024-01-30T12:25:51;10.60;69.30
3818;DHT22;1924;48.078;11.516;2024-01-30T12:28:19;10.60;69.70
3818;DHT22;1924;48.078;11.516;2024-01-30T12:30:47;10.50;70.00
3818;DHT22;1924;48.078;11.516;2024-01-30T12:33:16;10.50;69.00
3818;DHT22;1924;48.078;11.516;2024-01-30T12:35:46;10.50;69.80
3818;DHT22;1924;48.078;11.516;2024-01-30T12:38:13;10.50;69.20
3818;DHT22;1924;48.078;11.516;2024-01-30T12:40:40;10.60;69.10
3818;DHT22;1924;48.078;11.516;2024-01-30T12:43:07;10.60;67.10
3818;DHT22;1924;48.078;11.516;2024-01-30T12:45:33;10.50;69.00
3818;DHT22;1924;48.078;11.516;2024-01-30T12:48:02;10.50;68.30
3818;DHT22;1924;48.078;11.516;2024-01-30T12:50:28;10.50;67.00
3818;DHT22;1924;48.078;11.516;2024-01-30T12:52:55;10.60;65.50
3818;DHT22;1924;48.078;11.516;2024-01-30T12:55:23;10.60;65.10
3818;DHT22;1924;48.078;11.516;2024-01-30T12:57:53;10.70;68.10
3818;DHT22;1924;48.078;11.516;2024-01-30T13:00:24;10.70;68.70
3818;DHT22;1924;48.078;11.516;2024-01-30T13:02:50;10.70;64.80
3818;DHT22;1924;48.078;11.516;2024-01-30T13:05:18;10.80;65.30
3818;DHT22;1924;48.078;11.516;2024-01-30T13:07:46;10.90;66.50
3818;DHT22;1924;48.078;11.516;2024-01-30T13:10:15;11.20;69.20
3818;DHT22;1924;48.078;11.516;2024-01-30T13:12:42;11.20;66.00
3818;DHT22;1924;48.078;11.516;2024-01-30T13:15:12;11.40;62.20
3818;DHT22;1924;48.078;11.516;2024-01-30T13:17:39;11.40;62.30
3818;DHT22;1924;48.078;11.516;2024-01-30T13:20:08;11.40;64.80
3818;DHT22;1924;48.078;11.516;2024-01-30T13:22:37;11.50;65.90
3818;DHT22;1924;48.078;11.516;2024-01-30T13:25:05;11.40;65.40
3818;DHT22;1924;48.078;11.516;2024-01-30T13:27:32;11.30;64.10
3818;DHT22;1924;48.078;11.516;2024-01-30T13:29:59;11.20;64.80
3818;DHT22;1924;48.078;11.516;2024-01-30T13:32:26;11.10;66.90
3818;DHT22;1924;48.078;11.516;2024-01-30T13:34:52;11.10;65.60
3818;DHT22;1924;48.078;11.516;2024-01-30T13:37:19;11.10;64.40
3818;DHT22;1924;48.078;11.516;2024-01-30T13:39:47;11.10;66.50
3818;DHT22;1924;48.078;11.516;2024-01-30T13:42:14;11.20;63.00
3818;DHT22;1924;48.078;11.516;2024-01-30T13:44:41;11.30;64.20
3818;DHT22;1924;48.078;11.516;2024-01-30T13:47:09;11.30;64.00
3818;DHT22;1924;48.078;11.516;2024-01-30T13:49:36;11.30;62.70
3818;DHT22;1924;48.078;11.516;2024-01-30T13:52:03;11.20;64.70
3818;DHT22;1924;48.078;11.516;2024-01-30T13:54:33;11.20;65.80
3818;DHT22;1924;48.078;11.516;2024-01-30T13:57:03;11.20;64.30
3818;DHT22;1924;48.078;11.516;2024-01-30T13:59:30;11.20;66.20
3818;DHT22;1924;48.078;11.516;2024-01-30T14:01:57;11.10;67.00
3818;DHT22;1924;48.078;11.516;2024-01-30T14:04:24;11.10;66.40
3818;DHT22;1924;48.078;11.516;2024-01-30T14:06:51;11.00;65.60
3818;DHT22;1924;48.078;11.516;2024-01-30T14:09:18;10.90;65.30
3818;DHT22;1924;48.078;11.516;2024-01-30T14:11:47;10.90;65.50
3818;DHT22;1924;48.078;11.516;2024-01-30T14:14:15;10.80;68.20
3818;DHT22;1924;48.078;11.516;2024-01-30T14:16:41;10.70;66.20
3818;DHT22;1924;48.078;11.516;2024-01-30T14:19:08;10.70;66.40
3818;DHT22;1924;48.078;11.516;2024-01-30T14:21:35;10.60;66.20
3818;DHT22;1924;48.078;11.516;2024-01-30T14:24:03;10.50;67.00
3818;DHT22;1924;48.078;11.516;2024-01-30T14:26:29;10.50;67.90
3818;DHT22;1924;48.078;11.516;2024-01-30T14:28:58;10.40;67.80
3818;DHT22;1924;48.078;11.516;2024-01-30T14:31:26;10.40;68.10
3818;DHT22;1924;48.078;11.516;2024-01-30T14:33:53;10.40;68.30
3818;DHT22;1924;48.078;11.516;2024-01-30T14:36:20;10.30;69.00
3818;DHT22;1924;48.078;11.516;2024-01-30T14:38:47;10.30;69.70
3818;DHT22;1924;48.078;11.516;2024-01-30T14:41:14;10.20;70.30
3818;DHT22;1924;48.078;11.516;2024-01-30T14:43:41;10.20;70.60
3818;DHT22;1924;48.078;11.516;2024-01-30T14:46:08;10.20;71.20
3818;DHT22;1924;48.078;11.516;2024-01-30T14:48:38;10.20;72.50
3818;DHT22;1924;48.078;11.516;2024-01-30T14:51:04;10.10;71.30
3818;DHT22;1924;48.078;11.516;2024-01-30T14:53:31;10.10;71.70
3818;DHT22;1924;48.078;11.516;2024-01-30T14:56:00;10.00;71.00
3818;DHT22;1924;48.078;11.516;2024-01-30T14:58:28;10.00;71.30
3818;DHT22;1924;48.078;11.516;2024-01-30T15:00:55;10.00;71.60
3818;DHT22;1924;48.078;11.516;2024-01-30T15:03:26;9.90;72.80
3818;DHT22;1924;48.078;11.516;2024-01-30T15:05:54;9.90;72.80
3818;DHT22;1924;48.078;11.516;2024-01-30T15:08:24;9.90;73.00
3818;DHT22;1924;48.078;11.516;2024-01-30T15:34:12;9.40;76.30
3818;DHT22;1924;48.078;11.516;2024-01-30T15:36:42;9.30;77.90
3818;DHT22;1924;48.078;11.516;2024-01-30T15:44:10;9.00;80.90
3818;DHT22;1924;48.078;11.516;2024-01-30T15:46:37;8.90;83.00
3818;DHT22;1924;48.078;11.516;2024-01-30T15:49:04;8.80;81.90
3818;DHT22;1924;48.078;11.516;2024-01-30T15:51:33;8.70;83.30
3818;DHT22;1924;48.078;11.516;2024-01-30T15:54:01;8.70;85.80
3818;DHT22;1924;48.078;11.516;2024-01-30T15:56:32;8.60;87.20
3818;DHT22;1924;48.078;11.516;2024-01-30T15:58:59;8.60;88.70
3818;DHT22;1924;48.078;11.516;2024-01-30T16:01:28;8.50;89.00
3818;DHT22;1924;48.078;11.516;2024-01-30T16:04:01;8.40;88.80
3818;DHT22;1924;48.078;11.516;2024-01-30T16:06:32;8.30;89.90
3818;DHT22;1924;48.078;11.516;2024-01-30T16:09:02;8.20;90.00
3818;DHT22;1924;48.078;11.516;2024-01-30T16:11:32;8.10;90.10
3818;DHT22;1924;48.078;11.516;2024-01-30T16:21:52;7.70;91.20
3818;DHT22;1924;48.078;11.516;2024-01-30T16:26:50;7.60;91.50
3818;DHT22;1924;48.078;11.516;2024-01-30T16:32:06;7.40;91.50
3818;DHT22;1924;48.078;11.516;2024-01-30T16:58:11;6.60;92.80
3818;DHT22;1924;48.078;11.516;2024-01-30T17:16:12;6.30;93.60
3818;DHT22;1924;48.078;11.516;2024-01-30T17:18:38;6.20;93.50
3818;DHT22;1924;48.078;11.516;2024-01-30T17:39:23;5.90;94.50
3818;DHT22;1924;48.078;11.516;2024-01-30T17:41:51;5.80;94.60
3818;DHT22;1924;48.078;11.516;2024-01-30T17:49:29;5.70;94.10
3818;DHT22;1924;48.078;11.516;2024-01-30T17:51:56;5.60;94.50
3818;DHT22;1924;48.078;11.516;2024-01-30T18:20:35;5.30;94.30
3818;DHT22;1924;48.078;11.516;2024-01-30T18:28:49;5.30;94.40
3818;DHT22;1924;48.078;11.516;2024-01-30T18:31:16;5.20;94.20
3818;DHT22;1924;48.078;11.516;2024-01-30T18:43:53;5.00;95.40
3818;DHT22;1924;48.078;11.516;2024-01-30T18:46:20;5.00;95.50
3818;DHT22;1924;48.078;11.516;2024-01-30T18:48:48;4.90;95.50
3818;DHT22;1924;48.078;11.516;2024-01-30T18:53:57;4.90;95.30
3818;DHT22;1924;48.078;11.516;2024-01-30T18:56:23;5.00;95.00
3818;DHT22;1924;48.078;11.516;2024-01-30T18:58:52;4.90;95.00
3818;DHT22;1924;48.078;11.516;2024-01-30T19:01:19;4.90;95.00
3818;DHT22;1924;48.078;11.516;2024-01-30T19:03:46;4.90;94.90
3818;DHT22;1924;48.078;11.516;2024-01-30T19:06:13;4.90;94.90
3818;DHT22;1924;48.078;11.516;2024-01-30T19:08:39;4.90;94.70
3818;DHT22;1924;48.078;11.516;2024-01-30T19:11:06;4.90;94.70
3818;DHT22;1924;48.078;11.516;2024-01-30T19:13:33;4.90;94.70
3818;DHT22;1924;48.078;11.516;2024-01-30T19:16:01;4.90;94.70
3818;DHT22;1924;48.078;11.516;2024-01-30T19:28:35;4.90;94.90
3818;DHT22;1924;48.078;11.516;2024-01-30T19:33:29;4.90;95.00
3818;DHT22;1924;48.078;11.516;2024-01-30T19:35:57;4.90;95.30
3818;DHT22;1924;48.078;11.516;2024-01-30T19:38:25;4.80;95.50
3818;DHT22;1924;48.078;11.516;2024-01-30T19:43:35;4.80;95.70
3818;DHT22;1924;48.078;11.516;2024-01-30T19:56:21;4.70;95.60
3818;DHT22;1924;48.078;11.516;2024-01-30T19:58:48;4.70;95.50
3818;DHT22;1924;48.078;11.516;2024-01-30T20:01:16;4.70;95.40
3818;DHT22;1924;48.078;11.516;2024-01-30T20:03:43;4.80;95.70
3818;DHT22;1924;48.078;11.516;2024-01-30T20:08:46;4.70;95.50
3818;DHT22;1924;48.078;11.516;2024-01-30T20:11:13;4.50;95.40
3818;DHT22;1924;48.078;11.516;2024-01-30T20:13:42;4.40;95.80
3818;DHT22;1924;48.078;11.516;2024-01-30T20:19:31;4.40;95.70
3818;DHT22;1924;48.078;11.516;2024-01-30T20:27:09;4.30;96.30
3818;DHT22;1924;48.078;11.516;2024-01-30T20:32:13;4.30;96.20
3818;DHT22;1924;48.078;11.516;2024-01-30T20:34:41;4.20;96.30
3818;DHT22;1924;48.078;11.516;2024-01-30T20:37:08;4.30;96.20
3818;DHT22;1924;48.078;11.516;2024-01-30T20:39:34;4.20;96.20
3818;DHT22;1924;48.078;11.516;2024-01-30T20:42:02;4.10;96.40
3818;DHT22;1924;48.078;11.516;2024-01-30T20:57:17;4.20;96.70
3818;DHT22;1924;48.078;11.516;2024-01-30T21:02:19;4.20;96.60
3818;DHT22;1924;48.078;11.516;2024-01-30T21:04:45;4.10;96.50
3818;DHT22;1924;48.078;11.516;2024-01-30T21:35:51;3.90;97.40
3818;DHT22;1924;48.078;11.516;2024-01-30T21:38:18;4.00;97.60
3818;DHT22;1924;48.078;11.516;2024-01-30T21:40:45;4.00;97.80
3818;DHT22;1924;48.078;11.516;2024-01-30T21:43:11;3.90;97.50
3818;DHT22;1924;48.078;11.516;2024-01-30T21:45:38;4.00;97.80
3818;DHT22;1924;48.078;11.516;2024-01-30T21:48:06;4.00;97.80
3818;DHT22;1924;48.078;11.516;2024-01-30T21:50:32;4.00;98.10
3818;DHT22;1924;48.078;11.516;2024-01-30T21:53:00;4.00;97.70
3818;DHT22;1924;48.078;11.516;2024-01-30T21:55:28;4.00;97.80
3818;DHT22;1924;48.078;11.516;2024-01-30T21:57:54;4.00;98.00
3818;DHT22;1924;48.078;11.516;2024-01-30T22:00:21;4.00;97.70
3818;DHT22;1924;48.078;11.516;2024-01-30T22:02:48;4.00;97.70
3818;DHT22;1924;48.078;11.516;2024-01-30T22:05:15;4.00;97.90
3818;DHT22;1924;48.078;11.516;2024-01-30T22:07:41;4.10;97.90
3818;DHT22;1924;48.078;11.516;2024-01-30T22:10:10;4.10;98.00
3818;DHT22;1924;48.078;11.516;2024-01-30T22:12:37;4.10;98.10
3818;DHT22;1924;48.078;11.516;2024-01-30T22:15:04;4.00;97.80
3818;DHT22;1924;48.078;11.516;2024-01-30T22:17:31;4.10;97.80
3818;DHT22;1924;48.078;11.516;2024-01-30T22:19:58;4.10;97.80
3818;DHT22;1924;48.078;11.516;2024-01-30T22:22:24;4.00;97.90
3818;DHT22;1924;48.078;11.516;2024-01-30T22:24:51;4.00;98.10
3818;DHT22;1924;48.078;11.516;2024-01-30T22:27:19;4.00;98.10
3818;DHT22;1924;48.078;11.516;2024-01-30T22:29:46;4.00;98.30
3818;DHT22;1924;48.078;11.516;2024-01-30T22:32:13;4.00;98.20
3818;DHT22;1924;48.078;11.516;2024-01-30T22:34:39;3.90;98.40
3818;DHT22;1924;48.078;11.516;2024-01-30T22:37:06;4.00;98.50
3818;DHT22;1924;48.078;11.516;2024-01-30T22:39:33;3.90;98.40
3818;DHT22;1924;48.078;11.516;2024-01-30T22:41:59;4.00;98.40
3818;DHT22;1924;48.078;11.516;2024-01-30T22:44:27;4.10;98.40
3818;DHT22;1924;48.078;11.516;2024-01-30T22:46:54;4.10;98.30
3818;DHT22;1924;48.078;11.516;2024-01-30T22:49:21;4.10;98.80
3818;DHT22;1924;48.078;11.516;2024-01-30T22:51:48;4.10;98.60
3818;DHT22;1924;48.078;11.516;2024-01-30T22:54:15;4.10;98.80
3818;DHT22;1924;48.078;11.516;2024-01-30T22:56:43;4.10;98.70
3818;DHT22;1924;48.078;11.516;2024-01-30T22:59:09;4.20;98.80
3818;DHT22;1924;48.078;11.516;2024-01-30T23:01:37;4.20;98.70
3818;DHT22;1924;48.078;11.516;2024-01-30T23:04:05;4.20;98.60
3818;DHT22;1924;48.078;11.516;2024-01-30T23:06:35;4.20;98.40
3818;DHT22;1924;48.078;11.516;2024-01-30T23:09:02;4.20;98.60
3818;DHT22;1924;48.078;11.516;2024-01-30T23:11:29;4.30;98.80
3818;DHT22;1924;48.078;11.516;2024-01-30T23:13:56;4.40;99.00
3818;DHT22;1924;48.078;11.516;2024-01-30T23:16:22;4.30;98.70
3818;DHT22;1924;48.078;11.516;2024-01-30T23:18:50;4.30;98.80
3818;DHT22;1924;48.078;11.516;2024-01-30T23:21:18;4.40;99.00
3818;DHT22;1924;48.078;11.516;2024-01-30T23:23:44;4.40;99.10
3818;DHT22;1924;48.078;11.516;2024-01-30T23:26:11;4.40;99.30
3818;DHT22;1924;48.078;11.516;2024-01-30T23:28:38;4.40;99.30
3818;DHT22;1924;48.078;11.516;2024-01-30T23:31:05;4.50;99.00
3818;DHT22;1924;48.078;11.516;2024-01-30T23:33:31;4.50;99.20
3818;DHT22;1924;48.078;11.516;2024-01-30T23:36:00;4.60;99.30
3818;DHT22;1924;48.078;11.516;2024-01-30T23:38:27;4.60;99.00
3818;DHT22;1924;48.078;11.516;2024-01-30T23:40:53;4.60;98.70
3818;DHT22;1924;48.078;11.516;2024-01-30T23:43:20;4.60;98.80
3818;DHT22;1924;48.078;11.516;2024-01-30T23:45:47;4.60;98.40
3818;DHT22;1924;48.078;11.516;2024-01-30T23:48:14;4.70;98.60
3818;DHT22;1924;48.078;11.516;2024-01-30T23:50:40;4.70;98.90
3818;DHT22;1924;48.078;11.516;2024-01-30T23:53:09;4.80;98.30
3818;DHT22;1924;48.078;11.516;2024-01-30T23:55:35;4.80;98.30
3818;DHT22;1924;48.078;11.516;2024-01-30T23:58:04;4.80;98.60
